sensor_id;sensor_type;location;lat;lon;timestamp;P1;durP1;ratioP1;P2;durP2;ratioP2
3278;SDS011;1651;50.940;6.888;2023-02-08T00:00:12;10.50;;;7.10;;
3278;SDS011;1651;50.940;6.888;2023-02-08T00:02:39;10.77;;;8.00;;
3278;SDS011;1651;50.940;6.888;2023-02-08T00:05:05;9.95;;;6.97;;
3278;SDS011;1651;50.940;6.888;2023-02-08T00:07:34;17.02;;;9.27;;
3278;SDS011;1651;50.940;6.888;2023-02-08T00:10:00;10.63;;;7.20;;
3278;SDS011;1651;50.940;6.888;2023-02-08T00:12:29;9.75;;;6.30;;
3278;SDS011;1651;50.940;6.888;2023-02-08T00:14:55;18.30;;;8.57;;
3278;SDS011;1651;50.940;6.888;2023-02-08T00:17:20;10.33;;;6.83;;
3278;SDS011;1651;50.940;6.888;2023-02-08T00:19:47;12.18;;;7.78;;
3278;SDS011;1651;50.940;6.888;2023-02-08T00:22:13;11.20;;;7.47;;
3278;SDS011;1651;50.940;6.888;2023-02-08T00:24:38;9.90;;;7.40;;
3278;SDS011;1651;50.940;6.888;2023-02-08T00:27:04;10.63;;;7.80;;
3278;SDS011;1651;50.940;6.888;2023-02-08T00:29:30;12.13;;;6.80;;
3278;SDS011;1651;50.940;6.888;2023-02-08T00:31:56;14.50;;;8.35;;
3278;SDS011;1651;50.940;6.888;2023-02-08T00:34:22;11.60;;;7.33;;
3278;SDS011;1651;50.940;6.888;2023-02-08T00:36:48;12.90;;;9.50;;
3278;SDS011;1651;50.940;6.888;2023-02-08T00:39:14;10.63;;;7.73;;
3278;SDS011;1651;50.940;6.888;2023-02-08T00:41:40;10.85;;;7.82;;
3278;SDS011;1651;50.940;6.888;2023-02-08T00:44:06;12.10;;;7.93;;
3278;SDS011;1651;50.940;6.888;2023-02-08T00:46:32;14.23;;;6.60;;
3278;SDS011;1651;50.940;6.888;2023-02-08T00:48:58;14.00;;;9.10;;
3278;SDS011;1651;50.940;6.888;2023-02-08T00:51:25;12.00;;;7.00;;
3278;SDS011;1651;50.940;6.888;2023-02-08T00:53:51;13.07;;;8.02;;
3278;SDS011;1651;50.940;6.888;2023-02-08T00:56:17;11.95;;;8.15;;
3278;SDS011;1651;50.940;6.888;2023-02-08T00:58:43;11.17;;;7.87;;
3278;SDS011;1651;50.940;6.888;2023-02-08T01:01:09;13.00;;;7.97;;
3278;SDS011;1651;50.940;6.888;2023-02-08T01:03:36;10.40;;;6.30;;
3278;SDS011;1651;50.940;6.888;2023-02-08T01:06:03;6.72;;;4.78;;
3278;SDS011;1651;50.940;6.888;2023-02-08T01:08:30;10.85;;;7.55;;
3278;SDS011;1651;50.940;6.888;2023-02-08T01:11:03;9.30;;;6.93;;
3278;SDS011;1651;50.940;6.888;2023-02-08T01:13:29;4.82;;;3.92;;
3278;SDS011;1651;50.940;6.888;2023-02-08T01:16:03;10.43;;;6.95;;
3278;SDS011;1651;50.940;6.888;2023-02-08T01:18:29;9.30;;;6.10;;
3278;SDS011;1651;50.940;6.888;2023-02-08T01:21:01;12.10;;;8.50;;
3278;SDS011;1651;50.940;6.888;2023-02-08T01:23:27;8.57;;;5.70;;
3278;SDS011;1651;50.940;6.888;2023-02-08T01:25:53;15.93;;;8.25;;
3278;SDS011;1651;50.940;6.888;2023-02-08T01:28:19;12.32;;;8.27;;
3278;SDS011;1651;50.940;6.888;2023-02-08T01:30:45;12.67;;;7.57;;
3278;SDS011;1651;50.940;6.888;2023-02-08T01:33:11;9.70;;;7.73;;
3278;SDS011;1651;50.940;6.888;2023-02-08T01:35:37;14.30;;;8.60;;
3278;SDS011;1651;50.940;6.888;2023-02-08T01:38:03;12.10;;;7.97;;
3278;SDS011;1651;50.940;6.888;2023-02-08T01:40:29;12.70;;;7.07;;
3278;SDS011;1651;50.940;6.888;2023-02-08T01:42:55;11.00;;;7.40;;
3278;SDS011;1651;50.940;6.888;2023-02-08T01:45:29;8.63;;;6.77;;
3278;SDS011;1651;50.940;6.888;2023-02-08T01:48:03;9.73;;;7.22;;
3278;SDS011;1651;50.940;6.888;2023-02-08T01:50:33;11.55;;;7.82;;
3278;SDS011;1651;50.940;6.888;2023-02-08T01:53:01;12.65;;;7.60;;
3278;SDS011;1651;50.940;6.888;2023-02-08T01:58:04;14.23;;;7.53;;
3278;SDS011;1651;50.940;6.888;2023-02-08T02:00:30;14.00;;;7.95;;
3278;SDS011;1651;50.940;6.888;2023-02-08T02:02:56;14.80;;;8.63;;
3278;SDS011;1651;50.940;6.888;2023-02-08T06:48:21;13.18;;;8.45;;
3278;SDS011;1651;50.940;6.888;2023-02-08T06:50:47;13.77;;;8.00;;
3278;SDS011;1651;50.940;6.888;2023-02-08T06:53:16;13.80;;;8.02;;
3278;SDS011;1651;50.940;6.888;2023-02-08T06:55:46;14.23;;;9.55;;
3278;SDS011;1651;50.940;6.888;2023-02-08T06:58:13;13.45;;;8.38;;
3278;SDS011;1651;50.940;6.888;2023-02-08T07:00:40;10.40;;;8.15;;
3278;SDS011;1651;50.940;6.888;2023-02-08T07:03:06;13.13;;;7.50;;
3278;SDS011;1651;50.940;6.888;2023-02-08T07:05:35;13.98;;;8.20;;
3278;SDS011;1651;50.940;6.888;2023-02-08T07:08:01;16.52;;;9.25;;
3278;SDS011;1651;50.940;6.888;2023-02-08T07:13:30;12.80;;;7.95;;
3278;SDS011;1651;50.940;6.888;2023-02-08T07:15:56;11.75;;;7.57;;
3278;SDS011;1651;50.940;6.888;2023-02-08T07:18:23;10.38;;;6.53;;
3278;SDS011;1651;50.940;6.888;2023-02-08T07:20:49;13.05;;;8.18;;
3278;SDS011;1651;50.940;6.888;2023-02-08T07:23:15;11.52;;;7.40;;
3278;SDS011;1651;50.940;6.888;2023-02-08T07:25:42;9.48;;;7.00;;
3278;SDS011;1651;50.940;6.888;2023-02-08T07:28:09;12.15;;;7.68;;
3278;SDS011;1651;50.940;6.888;2023-02-08T07:30:43;16.42;;;8.50;;
3278;SDS011;1651;50.940;6.888;2023-02-08T07:33:09;13.07;;;8.07;;
3278;SDS011;1651;50.940;6.888;2023-02-08T07:35:35;12.20;;;8.23;;
3278;SDS011;1651;50.940;6.888;2023-02-08T07:38:01;12.95;;;9.85;;
3278;SDS011;1651;50.940;6.888;2023-02-08T07:40:26;14.70;;;8.73;;
3278;SDS011;1651;50.940;6.888;2023-02-08T07:42:53;12.43;;;6.45;;
3278;SDS011;1651;50.940;6.888;2023-02-08T07:45:19;13.43;;;9.07;;
3278;SDS011;1651;50.940;6.888;2023-02-08T07:47:45;10.32;;;7.05;;
3278;SDS011;1651;50.940;6.888;2023-02-08T07:50:11;11.73;;;7.07;;
3278;SDS011;1651;50.940;6.888;2023-02-08T07:52:37;12.32;;;7.93;;
3278;SDS011;1651;50.940;6.888;2023-02-08T07:55:13;12.80;;;7.80;;
3278;SDS011;1651;50.940;6.888;2023-02-08T07:57:44;18.63;;;9.10;;
3278;SDS011;1651;50.940;6.888;2023-02-08T08:00:13;15.20;;;9.85;;
3278;SDS011;1651;50.940;6.888;2023-02-08T08:02:39;13.00;;;8.35;;
3278;SDS011;1651;50.940;6.888;2023-02-08T08:05:05;10.35;;;7.80;;
3278;SDS011;1651;50.940;6.888;2023-02-08T08:07:31;13.23;;;8.75;;
3278;SDS011;1651;50.940;6.888;2023-02-08T08:09:57;13.98;;;8.45;;
3278;SDS011;1651;50.940;6.888;2023-02-08T08:12:25;12.23;;;8.02;;
3278;SDS011;1651;50.940;6.888;2023-02-08T08:14:53;12.00;;;8.40;;
3278;SDS011;1651;50.940;6.888;2023-02-08T08:17:24;13.07;;;8.27;;
3278;SDS011;1651;50.940;6.888;2023-02-08T08:19:50;13.30;;;8.82;;
3278;SDS011;1651;50.940;6.888;2023-02-08T08:22:16;22.85;;;8.57;;
3278;SDS011;1651;50.940;6.888;2023-02-08T08:24:42;12.03;;;7.70;;
3278;SDS011;1651;50.940;6.888;2023-02-08T08:27:08;14.33;;;8.03;;
3278;SDS011;1651;50.940;6.888;2023-02-08T08:29:35;15.18;;;8.60;;
3278;SDS011;1651;50.940;6.888;2023-02-08T08:32:01;11.65;;;8.45;;
3278;SDS011;1651;50.940;6.888;2023-02-08T08:34:28;12.57;;;8.30;;
3278;SDS011;1651;50.940;6.888;2023-02-08T08:36:58;15.80;;;7.65;;
3278;SDS011;1651;50.940;6.888;2023-02-08T08:39:25;12.52;;;6.97;;
3278;SDS011;1651;50.940;6.888;2023-02-08T08:41:51;11.52;;;9.10;;
3278;SDS011;1651;50.940;6.888;2023-02-08T08:44:17;10.10;;;7.78;;
3278;SDS011;1651;50.940;6.888;2023-02-08T08:46:43;12.27;;;7.95;;
3278;SDS011;1651;50.940;6.888;2023-02-08T08:49:09;13.10;;;7.37;;
3278;SDS011;1651;50.940;6.888;2023-02-08T08:51:35;12.30;;;7.67;;
3278;SDS011;1651;50.940;6.888;2023-02-08T08:54:01;10.80;;;7.73;;
3278;SDS011;1651;50.940;6.888;2023-02-08T08:56:28;7.53;;;6.73;;
3278;SDS011;1651;50.940;6.888;2023-02-08T08:58:54;10.23;;;7.60;;
3278;SDS011;1651;50.940;6.888;2023-02-08T09:01:21;7.67;;;6.43;;
3278;SDS011;1651;50.940;6.888;2023-02-08T09:03:47;10.80;;;8.17;;
3278;SDS011;1651;50.940;6.888;2023-02-08T09:06:13;11.90;;;7.50;;
3278;SDS011;1651;50.940;6.888;2023-02-08T09:08:39;8.10;;;6.70;;
3278;SDS011;1651;50.940;6.888;2023-02-08T09:11:06;11.37;;;6.50;;
3278;SDS011;1651;50.940;6.888;2023-02-08T09:13:32;9.80;;;6.83;;
3278;SDS011;1651;50.940;6.888;2023-02-08T09:16:05;9.07;;;6.90;;
3278;SDS011;1651;50.940;6.888;2023-02-08T09:18:31;10.00;;;7.50;;
3278;SDS011;1651;50.940;6.888;2023-02-08T09:20:57;8.80;;;7.30;;
3278;SDS011;1651;50.940;6.888;2023-02-08T09:23:23;8.97;;;7.40;;
3278;SDS011;1651;50.940;6.888;2023-02-08T09:25:49;10.23;;;7.37;;
3278;SDS011;1651;50.940;6.888;2023-02-08T09:28:16;13.50;;;7.80;;
3278;SDS011;1651;50.940;6.888;2023-02-08T09:30:42;11.20;;;7.30;;
3278;SDS011;1651;50.940;6.888;2023-02-08T09:33:09;12.18;;;8.07;;
3278;SDS011;1651;50.940;6.888;2023-02-08T09:35:36;8.80;;;6.07;;
3278;SDS011;1651;50.940;6.888;2023-02-08T09:38:02;10.73;;;5.90;;
3278;SDS011;1651;50.940;6.888;2023-02-08T09:40:34;7.95;;;6.03;;
3278;SDS011;1651;50.940;6.888;2023-02-08T09:43:08;11.55;;;7.45;;
3278;SDS011;1651;50.940;6.888;2023-02-08T09:45:39;8.68;;;4.72;;
3278;SDS011;1651;50.940;6.888;2023-02-08T09:48:14;8.82;;;6.60;;
3278;SDS011;1651;50.940;6.888;2023-02-08T09:50:47;10.27;;;6.65;;
3278;SDS011;1651;50.940;6.888;2023-02-08T09:53:31;12.02;;;7.93;;
3278;SDS011;1651;50.940;6.888;2023-02-08T09:56:21;9.13;;;7.00;;
3278;SDS011;1651;50.940;6.888;2023-02-08T09:58:51;9.30;;;6.75;;
3278;SDS011;1651;50.940;6.888;2023-02-08T10:01:21;9.93;;;7.75;;
3278;SDS011;1651;50.940;6.888;2023-02-08T10:03:49;8.82;;;7.10;;
3278;SDS011;1651;50.940;6.888;2023-02-08T10:06:17;5.15;;;3.75;;
3278;SDS011;1651;50.940;6.888;2023-02-08T10:16:32;10.75;;;6.57;;
3278;SDS011;1651;50.940;6.888;2023-02-08T11:05:57;6.88;;;4.63;;
3278;SDS011;1651;50.940;6.888;2023-02-08T11:08:25;8.23;;;5.90;;
3278;SDS011;1651;50.940;6.888;2023-02-08T11:10:59;8.32;;;5.80;;
3278;SDS011;1651;50.940;6.888;2023-02-08T11:13:35;11.93;;;7.78;;
3278;SDS011;1651;50.940;6.888;2023-02-08T11:16:03;11.98;;;6.88;;
3278;SDS011;1651;50.940;6.888;2023-02-08T11:18:34;9.15;;;5.70;;
3278;SDS011;1651;50.940;6.888;2023-02-08T11:21:02;4.03;;;3.03;;
3278;SDS011;1651;50.940;6.888;2023-02-08T11:23:35;6.40;;;4.97;;
3278;SDS011;1651;50.940;6.888;2023-02-08T11:26:20;8.07;;;5.40;;
3278;SDS011;1651;50.940;6.888;2023-02-08T11:31:26;14.50;;;7.13;;
3278;SDS011;1651;50.940;6.888;2023-02-08T11:34:07;10.93;;;7.25;;
3278;SDS011;1651;50.940;6.888;2023-02-08T11:36:36;8.25;;;5.75;;
3278;SDS011;1651;50.940;6.888;2023-02-08T11:39:14;7.72;;;5.50;;
3278;SDS011;1651;50.940;6.888;2023-02-08T11:41:46;9.52;;;5.72;;
3278;SDS011;1651;50.940;6.888;2023-02-08T11:44:16;9.50;;;6.03;;
3278;SDS011;1651;50.940;6.888;2023-02-08T11:46:45;7.57;;;6.50;;
3278;SDS011;1651;50.940;6.888;2023-02-08T11:52:24;6.38;;;5.03;;
3278;SDS011;1651;50.940;6.888;2023-02-08T11:54:53;5.32;;;3.20;;
3278;SDS011;1651;50.940;6.888;2023-02-08T11:57:21;6.70;;;5.00;;
3278;SDS011;1651;50.940;6.888;2023-02-08T11:59:51;3.15;;;2.50;;
3278;SDS011;1651;50.940;6.888;2023-02-08T12:02:38;5.03;;;2.90;;
3278;SDS011;1651;50.940;6.888;2023-02-08T12:05:09;6.00;;;4.25;;
3278;SDS011;1651;50.940;6.888;2023-02-08T12:10:07;5.25;;;4.45;;
3278;SDS011;1651;50.940;6.888;2023-02-08T12:12:41;5.05;;;2.95;;
3278;SDS011;1651;50.940;6.888;2023-02-08T12:22:44;4.60;;;3.42;;
3278;SDS011;1651;50.940;6.888;2023-02-08T12:28:02;3.90;;;3.50;;
3278;SDS011;1651;50.940;6.888;2023-02-08T12:30:40;6.38;;;3.95;;
3278;SDS011;1651;50.940;6.888;2023-02-08T12:46:37;10.60;;;4.45;;
3278;SDS011;1651;50.940;6.888;2023-02-08T12:49:14;6.88;;;4.30;;
3278;SDS011;1651;50.940;6.888;2023-02-08T12:54:17;11.32;;;4.60;;
3278;SDS011;1651;50.940;6.888;2023-02-08T12:56:49;7.57;;;5.40;;
3278;SDS011;1651;50.940;6.888;2023-02-08T12:59:33;5.70;;;4.35;;
3278;SDS011;1651;50.940;6.888;2023-02-08T13:02:01;4.43;;;2.80;;
3278;SDS011;1651;50.940;6.888;2023-02-08T13:04:38;7.43;;;4.45;;
3278;SDS011;1651;50.940;6.888;2023-02-08T13:07:48;8.20;;;5.00;;
3278;SDS011;1651;50.940;6.888;2023-02-08T13:10:05;4.25;;;3.58;;
3278;SDS011;1651;50.940;6.888;2023-02-08T13:12:34;9.30;;;5.05;;
3278;SDS011;1651;50.940;6.888;2023-02-08T13:15:06;6.35;;;4.32;;
3278;SDS011;1651;50.940;6.888;2023-02-08T13:20:44;5.10;;;3.17;;
3278;SDS011;1651;50.940;6.888;2023-02-08T13:22:51;5.25;;;4.15;;
3278;SDS011;1651;50.940;6.888;2023-02-08T13:25:35;3.83;;;3.30;;
3278;SDS011;1651;50.940;6.888;2023-02-08T13:28:06;4.47;;;3.17;;
3278;SDS011;1651;50.940;6.888;2023-02-08T13:30:33;3.17;;;2.15;;
3278;SDS011;1651;50.940;6.888;2023-02-08T13:33:00;5.18;;;3.05;;
3278;SDS011;1651;50.940;6.888;2023-02-08T13:35:30;7.70;;;2.72;;
3278;SDS011;1651;50.940;6.888;2023-02-08T13:38:04;3.50;;;2.63;;
3278;SDS011;1651;50.940;6.888;2023-02-08T13:40:34;4.40;;;3.50;;
3278;SDS011;1651;50.940;6.888;2023-02-08T13:43:02;4.30;;;3.28;;
3278;SDS011;1651;50.940;6.888;2023-02-08T13:48:02;4.80;;;2.35;;
3278;SDS011;1651;50.940;6.888;2023-02-08T13:53:13;3.05;;;2.10;;
3278;SDS011;1651;50.940;6.888;2023-02-08T13:56:04;2.63;;;1.98;;
3278;SDS011;1651;50.940;6.888;2023-02-08T14:01:19;4.50;;;3.35;;
3278;SDS011;1651;50.940;6.888;2023-02-08T14:06:48;5.05;;;3.47;;
3278;SDS011;1651;50.940;6.888;2023-02-08T14:11:46;4.90;;;3.10;;
3278;SDS011;1651;50.940;6.888;2023-02-08T14:17:19;5.90;;;3.60;;
3278;SDS011;1651;50.940;6.888;2023-02-08T14:19:39;3.40;;;2.83;;
3278;SDS011;1651;50.940;6.888;2023-02-08T14:24:40;2.97;;;2.60;;
3278;SDS011;1651;50.940;6.888;2023-02-08T14:27:22;4.82;;;3.35;;
3278;SDS011;1651;50.940;6.888;2023-02-08T14:32:44;4.65;;;2.95;;
3278;SDS011;1651;50.940;6.888;2023-02-08T14:37:42;3.67;;;2.42;;
3278;SDS011;1651;50.940;6.888;2023-02-08T14:42:58;2.08;;;1.63;;
3278;SDS011;1651;50.940;6.888;2023-02-08T14:47:57;7.85;;;1.92;;
3278;SDS011;1651;50.940;6.888;2023-02-08T14:50:27;2.22;;;2.00;;
3278;SDS011;1651;50.940;6.888;2023-02-08T14:52:58;3.85;;;2.60;;
3278;SDS011;1651;50.940;6.888;2023-02-08T14:55:26;4.22;;;2.28;;
3278;SDS011;1651;50.940;6.888;2023-02-08T14:57:54;3.95;;;1.80;;
3278;SDS011;1651;50.940;6.888;2023-02-08T15:00:22;2.20;;;1.90;;
3278;SDS011;1651;50.940;6.888;2023-02-08T15:02:49;3.00;;;1.75;;
3278;SDS011;1651;50.940;6.888;2023-02-08T15:05:19;4.05;;;2.05;;
3278;SDS011;1651;50.940;6.888;2023-02-08T15:07:50;2.50;;;1.60;;
3278;SDS011;1651;50.940;6.888;2023-02-08T15:10:18;3.55;;;1.40;;
3278;SDS011;1651;50.940;6.888;2023-02-08T15:12:46;2.30;;;1.70;;
3278;SDS011;1651;50.940;6.888;2023-02-08T15:15:22;3.67;;;2.17;;
3278;SDS011;1651;50.940;6.888;2023-02-08T15:17:49;5.53;;;1.90;;
3278;SDS011;1651;50.940;6.888;2023-02-08T15:20:18;2.55;;;1.80;;
3278;SDS011;1651;50.940;6.888;2023-02-08T15:22:44;4.23;;;2.10;;
3278;SDS011;1651;50.940;6.888;2023-02-08T15:25:22;4.13;;;2.17;;
3278;SDS011;1651;50.940;6.888;2023-02-08T15:27:52;3.72;;;2.25;;
3278;SDS011;1651;50.940;6.888;2023-02-08T15:32:47;4.20;;;2.08;;
3278;SDS011;1651;50.940;6.888;2023-02-08T15:35:14;3.90;;;2.43;;
3278;SDS011;1651;50.940;6.888;2023-02-08T15:37:42;2.97;;;2.65;;
3278;SDS011;1651;50.940;6.888;2023-02-08T15:40:20;2.63;;;2.35;;
3278;SDS011;1651;50.940;6.888;2023-02-08T15:42:47;3.67;;;1.85;;
3278;SDS011;1651;50.940;6.888;2023-02-08T15:45:24;1.80;;;1.55;;
3278;SDS011;1651;50.940;6.888;2023-02-08T15:47:50;1.67;;;1.58;;
3278;SDS011;1651;50.940;6.888;2023-02-08T15:50:18;3.15;;;2.20;;
3278;SDS011;1651;50.940;6.888;2023-02-08T15:52:45;2.35;;;2.15;;
3278;SDS011;1651;50.940;6.888;2023-02-08T15:55:17;2.35;;;1.42;;
3278;SDS011;1651;50.940;6.888;2023-02-08T16:00:18;3.67;;;2.55;;
3278;SDS011;1651;50.940;6.888;2023-02-08T16:02:49;2.22;;;1.65;;
3278;SDS011;1651;50.940;6.888;2023-02-08T16:05:17;5.40;;;4.70;;
3278;SDS011;1651;50.940;6.888;2023-02-08T16:07:45;4.07;;;2.83;;
3278;SDS011;1651;50.940;6.888;2023-02-08T16:12:50;2.20;;;2.10;;
3278;SDS011;1651;50.940;6.888;2023-02-08T16:18:00;3.65;;;2.40;;
3278;SDS011;1651;50.940;6.888;2023-02-08T16:20:31;3.15;;;2.47;;
3278;SDS011;1651;50.940;6.888;2023-02-08T16:22:58;3.72;;;3.25;;
3278;SDS011;1651;50.940;6.888;2023-02-08T16:28:16;6.32;;;2.55;;
3278;SDS011;1651;50.940;6.888;2023-02-08T16:30:47;3.33;;;2.33;;
3278;SDS011;1651;50.940;6.888;2023-02-08T16:33:13;4.40;;;3.27;;
3278;SDS011;1651;50.940;6.888;2023-02-08T16:35:39;6.00;;;2.70;;
3278;SDS011;1651;50.940;6.888;2023-02-08T16:38:06;4.75;;;3.45;;
3278;SDS011;1651;50.940;6.888;2023-02-08T16:43:47;2.60;;;1.60;;
3278;SDS011;1651;50.940;6.888;2023-02-08T16:48:37;3.67;;;2.28;;
3278;SDS011;1651;50.940;6.888;2023-02-08T16:51:14;6.70;;;4.88;;
3278;SDS011;1651;50.940;6.888;2023-02-08T16:53:41;2.90;;;2.47;;
3278;SDS011;1651;50.940;6.888;2023-02-08T16:56:09;5.03;;;3.45;;
3278;SDS011;1651;50.940;6.888;2023-02-08T16:58:35;4.25;;;3.50;;
3278;SDS011;1651;50.940;6.888;2023-02-08T17:01:01;4.17;;;3.40;;
3278;SDS011;1651;50.940;6.888;2023-02-08T17:03:28;8.85;;;3.65;;
3278;SDS011;1651;50.940;6.888;2023-02-08T17:05:54;5.22;;;3.97;;
3278;SDS011;1651;50.940;6.888;2023-02-08T17:08:20;2.67;;;2.17;;
3278;SDS011;1651;50.940;6.888;2023-02-08T17:10:47;7.20;;;4.20;;
3278;SDS011;1651;50.940;6.888;2023-02-08T17:13:16;6.68;;;4.55;;
3278;SDS011;1651;50.940;6.888;2023-02-08T17:15:42;7.40;;;3.75;;
3278;SDS011;1651;50.940;6.888;2023-02-08T17:18:09;9.63;;;5.30;;
3278;SDS011;1651;50.940;6.888;2023-02-08T17:20:36;6.60;;;4.03;;
3278;SDS011;1651;50.940;6.888;2023-02-08T17:23:02;9.48;;;5.15;;
3278;SDS011;1651;50.940;6.888;2023-02-08T17:25:31;4.88;;;3.90;;
3278;SDS011;1651;50.940;6.888;2023-02-08T17:27:59;6.28;;;4.55;;
3278;SDS011;1651;50.940;6.888;2023-02-08T17:32:52;7.55;;;5.45;;
3278;SDS011;1651;50.940;6.888;2023-02-08T17:35:25;5.32;;;3.15;;
3278;SDS011;1651;50.940;6.888;2023-02-08T17:37:57;10.35;;;5.90;;
3278;SDS011;1651;50.940;6.888;2023-02-08T17:40:27;7.72;;;5.25;;
3278;SDS011;1651;50.940;6.888;2023-02-08T17:42:55;9.45;;;5.40;;
3278;SDS011;1651;50.940;6.888;2023-02-08T17:45:21;9.98;;;6.70;;
3278;SDS011;1651;50.940;6.888;2023-02-08T17:47:47;7.13;;;3.50;;
3278;SDS011;1651;50.940;6.888;2023-02-08T17:50:14;7.35;;;4.63;;
3278;SDS011;1651;50.940;6.888;2023-02-08T17:52:40;8.93;;;6.10;;
3278;SDS011;1651;50.940;6.888;2023-02-08T17:55:08;5.40;;;4.30;;
3278;SDS011;1651;50.940;6.888;2023-02-08T17:57:35;11.82;;;6.30;;
3278;SDS011;1651;50.940;6.888;2023-02-08T18:00:03;4.38;;;3.85;;
3278;SDS011;1651;50.940;6.888;2023-02-08T18:02:30;10.93;;;6.47;;
3278;SDS011;1651;50.940;6.888;2023-02-08T18:04:56;8.37;;;3.67;;
3278;SDS011;1651;50.940;6.888;2023-02-08T18:07:22;8.55;;;5.72;;
3278;SDS011;1651;50.940;6.888;2023-02-08T18:09:48;8.70;;;5.97;;
3278;SDS011;1651;50.940;6.888;2023-02-08T18:12:14;10.60;;;6.40;;
3278;SDS011;1651;50.940;6.888;2023-02-08T18:14:40;10.05;;;6.65;;
3278;SDS011;1651;50.940;6.888;2023-02-08T18:17:06;11.10;;;7.00;;
3278;SDS011;1651;50.940;6.888;2023-02-08T18:19:32;11.15;;;6.93;;
3278;SDS011;1651;50.940;6.888;2023-02-08T18:21:58;8.52;;;6.78;;
3278;SDS011;1651;50.940;6.888;2023-02-08T18:24:27;7.82;;;5.10;;
3278;SDS011;1651;50.940;6.888;2023-02-08T18:26:54;12.77;;;6.30;;
3278;SDS011;1651;50.940;6.888;2023-02-08T18:29:20;9.63;;;6.07;;
3278;SDS011;1651;50.940;6.888;2023-02-08T18:31:46;9.82;;;7.07;;
3278;SDS011;1651;50.940;6.888;2023-02-08T18:34:12;10.47;;;6.60;;
3278;SDS011;1651;50.940;6.888;2023-02-08T18:36:42;9.55;;;7.00;;
3278;SDS011;1651;50.940;6.888;2023-02-08T18:39:09;14.80;;;6.20;;
3278;SDS011;1651;50.940;6.888;2023-02-08T18:41:37;7.65;;;6.80;;
3278;SDS011;1651;50.940;6.888;2023-02-08T18:44:03;14.98;;;6.45;;
3278;SDS011;1651;50.940;6.888;2023-02-08T18:46:29;10.23;;;6.93;;
3278;SDS011;1651;50.940;6.888;2023-02-08T18:48:56;8.80;;;6.28;;
3278;SDS011;1651;50.940;6.888;2023-02-08T18:51:24;8.30;;;6.32;;
3278;SDS011;1651;50.940;6.888;2023-02-08T18:53:51;6.38;;;3.00;;
3278;SDS011;1651;50.940;6.888;2023-02-08T18:56:18;13.48;;;7.30;;
3278;SDS011;1651;50.940;6.888;2023-02-08T18:58:49;15.68;;;8.35;;
3278;SDS011;1651;50.940;6.888;2023-02-08T19:01:17;10.70;;;7.15;;
3278;SDS011;1651;50.940;6.888;2023-02-08T19:03:43;10.38;;;7.32;;
3278;SDS011;1651;50.940;6.888;2023-02-08T19:06:11;12.77;;;6.70;;
3278;SDS011;1651;50.940;6.888;2023-02-08T19:08:37;9.13;;;7.25;;
3278;SDS011;1651;50.940;6.888;2023-02-08T19:11:12;11.52;;;6.60;;
3278;SDS011;1651;50.940;6.888;2023-02-08T19:13:38;12.20;;;7.55;;
3278;SDS011;1651;50.940;6.888;2023-02-08T19:16:05;11.55;;;8.13;;
3278;SDS011;1651;50.940;6.888;2023-02-08T19:18:31;9.95;;;6.60;;
3278;SDS011;1651;50.940;6.888;2023-02-08T19:21:07;13.52;;;7.43;;
3278;SDS011;1651;50.940;6.888;2023-02-08T19:23:33;13.95;;;7.15;;
3278;SDS011;1651;50.940;6.888;2023-02-08T19:26:01;5.75;;;5.13;;
3278;SDS011;1651;50.940;6.888;2023-02-08T19:28:27;9.60;;;6.95;;
3278;SDS011;1651;50.940;6.888;2023-02-08T19:31:01;15.93;;;8.02;;
3278;SDS011;1651;50.940;6.888;2023-02-08T19:33:29;11.18;;;7.45;;
3278;SDS011;1651;50.940;6.888;2023-02-08T19:35:55;5.32;;;4.00;;
3278;SDS011;1651;50.940;6.888;2023-02-08T19:38:24;10.40;;;6.90;;
3278;SDS011;1651;50.940;6.888;2023-02-08T19:40:54;12.48;;;6.97;;
3278;SDS011;1651;50.940;6.888;2023-02-08T19:43:20;11.00;;;8.10;;
3278;SDS011;1651;50.940;6.888;2023-02-08T19:45:46;12.87;;;8.83;;
3278;SDS011;1651;50.940;6.888;2023-02-08T19:48:12;12.70;;;7.78;;
3278;SDS011;1651;50.940;6.888;2023-02-08T19:50:40;13.70;;;7.80;;
3278;SDS011;1651;50.940;6.888;2023-02-08T19:53:06;10.52;;;7.85;;
3278;SDS011;1651;50.940;6.888;2023-02-08T19:55:33;13.45;;;8.18;;
3278;SDS011;1651;50.940;6.888;2023-02-08T19:57:59;10.30;;;7.20;;
3278;SDS011;1651;50.940;6.888;2023-02-08T20:00:27;10.50;;;7.20;;
3278;SDS011;1651;50.940;6.888;2023-02-08T20:02:53;7.72;;;6.82;;
3278;SDS011;1651;50.940;6.888;2023-02-08T20:07:50;10.68;;;7.20;;
3278;SDS011;1651;50.940;6.888;2023-02-08T20:10:16;10.05;;;7.50;;
3278;SDS011;1651;50.940;6.888;2023-02-08T20:12:42;14.60;;;8.50;;
3278;SDS011;1651;50.940;6.888;2023-02-08T20:15:08;12.50;;;7.63;;
3278;SDS011;1651;50.940;6.888;2023-02-08T20:17:34;17.73;;;7.15;;
3278;SDS011;1651;50.940;6.888;2023-02-08T20:20:02;11.40;;;7.70;;
3278;SDS011;1651;50.940;6.888;2023-02-08T20:22:28;14.48;;;7.85;;
3278;SDS011;1651;50.940;6.888;2023-02-08T20:24:55;14.37;;;7.83;;
3278;SDS011;1651;50.940;6.888;2023-02-08T20:27:21;12.48;;;7.40;;
3278;SDS011;1651;50.940;6.888;2023-02-08T20:29:47;13.40;;;8.20;;
3278;SDS011;1651;50.940;6.888;2023-02-08T20:32:13;15.15;;;8.05;;
3278;SDS011;1651;50.940;6.888;2023-02-08T20:34:39;15.60;;;9.45;;
3278;SDS011;1651;50.940;6.888;2023-02-08T20:37:05;15.98;;;9.25;;
3278;SDS011;1651;50.940;6.888;2023-02-08T20:39:32;22.70;;;13.87;;
3278;SDS011;1651;50.940;6.888;2023-02-08T20:41:58;13.40;;;9.23;;
3278;SDS011;1651;50.940;6.888;2023-02-08T20:44:24;13.10;;;10.00;;
3278;SDS011;1651;50.940;6.888;2023-02-08T20:46:52;12.40;;;8.55;;
3278;SDS011;1651;50.940;6.888;2023-02-08T20:49:18;14.30;;;8.35;;
3278;SDS011;1651;50.940;6.888;2023-02-08T20:51:49;14.10;;;8.35;;
3278;SDS011;1651;50.940;6.888;2023-02-08T20:54:18;16.10;;;9.48;;
3278;SDS011;1651;50.940;6.888;2023-02-08T20:56:44;13.93;;;8.77;;
3278;SDS011;1651;50.940;6.888;2023-02-08T20:59:11;15.90;;;8.20;;
3278;SDS011;1651;50.940;6.888;2023-02-08T21:01:39;13.02;;;7.03;;
3278;SDS011;1651;50.940;6.888;2023-02-08T21:04:06;10.18;;;6.95;;
3278;SDS011;1651;50.940;6.888;2023-02-08T21:06:33;12.32;;;7.65;;
3278;SDS011;1651;50.940;6.888;2023-02-08T21:09:03;16.30;;;9.43;;
3278;SDS011;1651;50.940;6.888;2023-02-08T21:11:31;12.95;;;7.78;;
3278;SDS011;1651;50.940;6.888;2023-02-08T21:13:57;13.00;;;7.60;;
3278;SDS011;1651;50.940;6.888;2023-02-08T21:16:23;15.43;;;8.73;;
3278;SDS011;1651;50.940;6.888;2023-02-08T21:18:49;14.45;;;8.43;;
3278;SDS011;1651;50.940;6.888;2023-02-08T21:21:16;15.27;;;9.00;;
3278;SDS011;1651;50.940;6.888;2023-02-08T21:23:42;21.50;;;9.60;;
3278;SDS011;1651;50.940;6.888;2023-02-08T21:26:09;13.43;;;7.60;;
3278;SDS011;1651;50.940;6.888;2023-02-08T21:28:38;12.93;;;7.78;;
3278;SDS011;1651;50.940;6.888;2023-02-08T21:31:15;13.32;;;7.47;;
3278;SDS011;1651;50.940;6.888;2023-02-08T21:33:42;11.68;;;8.77;;
3278;SDS011;1651;50.940;6.888;2023-02-08T21:36:10;17.23;;;8.95;;
3278;SDS011;1651;50.940;6.888;2023-02-08T21:38:38;16.48;;;9.93;;
3278;SDS011;1651;50.940;6.888;2023-02-08T21:41:14;18.53;;;9.70;;
3278;SDS011;1651;50.940;6.888;2023-02-08T21:43:40;20.92;;;11.65;;
3278;SDS011;1651;50.940;6.888;2023-02-08T21:46:06;14.55;;;8.10;;
3278;SDS011;1651;50.940;6.888;2023-02-08T21:48:33;16.77;;;8.98;;
3278;SDS011;1651;50.940;6.888;2023-02-08T21:51:19;16.40;;;9.63;;
3278;SDS011;1651;50.940;6.888;2023-02-08T21:54:04;13.40;;;8.50;;
3278;SDS011;1651;50.940;6.888;2023-02-08T21:56:52;11.50;;;7.07;;
3278;SDS011;1651;50.940;6.888;2023-02-08T21:59:18;11.00;;;8.25;;
3278;SDS011;1651;50.940;6.888;2023-02-08T22:01:44;20.73;;;6.37;;
3278;SDS011;1651;50.940;6.888;2023-02-08T22:04:10;12.32;;;8.20;;
3278;SDS011;1651;50.940;6.888;2023-02-08T22:06:36;16.07;;;9.77;;
3278;SDS011;1651;50.940;6.888;2023-02-08T22:09:02;11.80;;;9.20;;
3278;SDS011;1651;50.940;6.888;2023-02-08T22:11:29;14.48;;;9.57;;
3278;SDS011;1651;50.940;6.888;2023-02-08T22:13:55;17.73;;;10.55;;
3278;SDS011;1651;50.940;6.888;2023-02-08T22:16:21;12.23;;;6.75;;
3278;SDS011;1651;50.940;6.888;2023-02-08T22:18:47;11.98;;;7.45;;
3278;SDS011;1651;50.940;6.888;2023-02-08T22:21:13;14.95;;;9.45;;
3278;SDS011;1651;50.940;6.888;2023-02-08T22:23:39;13.38;;;8.10;;
3278;SDS011;1651;50.940;6.888;2023-02-08T22:26:06;11.90;;;7.35;;
3278;SDS011;1651;50.940;6.888;2023-02-08T22:28:32;9.98;;;6.57;;